Time;durP1;ratioP1;P1;durP2;ratioP2;P2;SDS_P1;SDS_P2;PMS_P1;PMS_P2;Temp;Humidity;BMP_temperature;BMP_pressure;BME280_temperature;BME280_humidity;BME280_pressure;Samples;Min_cycle;Max_cycle;Signal;HPM_P1;HPM_P2
2021/01/03 00:02:11;;;;;;;40.60;28.40;;;;;;;3.37;75.75;102439.48;1728473;81;21496;-74
2021/01/03 00:04:40;;;;;;;38.35;27.20;;;;;;;3.36;75.78;102444.66;1729530;81;21761;-78
2021/01/03 00:07:08;;;;;;;34.70;24.45;;;;;;;3.39;75.73;102444.23;1729658;81;21914;-79
2021/01/03 00:09:37;;;;;;;42.10;25.65;;;;;;;3.40;75.62;102436.02;1729597;81;20931;-79
2021/01/03 00:12:06;;;;;;;35.35;25.00;;;;;;;3.39;75.70;102439.05;1729639;81;21358;-77
2021/01/03 00:14:34;;;;;;;40.67;27.25;;;;;;;3.40;75.79;102446.39;1728373;81;20958;-76
2021/01/03 00:17:05;;;;;;;35.70;28.35;;;;;;;3.44;75.78;102448.98;1729639;81;21018;-78
2021/01/03 00:19:33;;;;;;;41.08;28.75;;;;;;;3.48;75.76;102453.73;1728244;80;21598;-78
2021/01/03 00:22:01;;;;;;;41.20;28.92;;;;;;;3.52;75.90;102454.17;1729688;81;21059;-77
2021/01/03 00:24:30;;;;;;;43.20;27.93;;;;;;;3.60;75.87;102453.74;1729790;81;22006;-78
2021/01/03 00:26:57;;;;;;;44.20;28.95;;;;;;;3.65;75.71;102455.89;1729584;81;21029;-77
2021/01/03 00:29:25;;;;;;;41.40;27.98;;;;;;;3.71;75.52;102457.59;1729679;81;20931;-76
2021/01/03 00:31:53;;;;;;;40.60;27.93;;;;;;;3.73;75.38;102458.05;1729482;81;21177;-77
2021/01/03 00:34:22;;;;;;;35.70;26.68;;;;;;;3.74;75.33;102455.01;1729640;81;21038;-76
2021/01/03 00:36:50;;;;;;;40.58;27.80;;;;;;;3.72;75.25;102458.89;1729616;81;21040;-77
2021/01/03 00:39:18;;;;;;;39.75;28.07;;;;;;;3.68;75.22;102464.95;1729446;80;20954;-78
2021/01/03 00:41:50;;;;;;;47.58;31.45;;;;;;;3.64;75.29;102463.66;1719231;82;20999;-78
2021/01/03 00:44:19;;;;;;;51.37;33.67;;;;;;;3.59;75.51;102457.19;1711110;82;21115;-77
2021/01/03 00:46:47;;;;;;;47.23;32.98;;;;;;;3.61;75.53;102454.16;1735700;82;21066;-75
2021/01/03 00:49:15;;;;;;;53.17;34.13;;;;;;;3.63;75.49;102457.62;1714932;82;20956;-76
2021/01/03 00:51:43;;;;;;;44.25;32.42;;;;;;;3.62;75.44;102457.17;1715064;82;21607;-75
2021/01/03 00:54:12;;;;;;;43.60;29.18;;;;;;;3.64;75.35;102458.03;1715142;82;21011;-76
2021/01/03 00:56:40;;;;;;;39.27;28.67;;;;;;;3.68;75.34;102455.87;1715249;82;21083;-76
2021/01/03 00:59:08;;;;;;;46.40;32.53;;;;;;;3.68;75.32;102452.42;1717518;82;20971;-73
2021/01/03 01:01:36;;;;;;;51.02;33.88;;;;;;;3.67;75.41;102450.27;1716011;81;20960;-75
2021/01/03 01:04:04;;;;;;;49.98;31.73;;;;;;;3.68;75.42;102457.17;1714512;82;21031;-75
2021/01/03 01:06:32;;;;;;;40.25;29.23;;;;;;;3.69;75.31;102458.91;1715075;82;21019;-76
2021/01/03 01:09:00;;;;;;;52.43;31.27;;;;;;;3.71;75.26;102462.78;1714936;82;21484;-75
2021/01/03 01:11:29;;;;;;;43.68;31.33;;;;;;;3.71;75.19;102462.78;1714611;82;20959;-75
2021/01/03 01:13:57;;;;;;;42.78;27.67;;;;;;;3.68;75.20;102454.57;1714757;82;21386;-75
2021/01/03 01:16:24;;;;;;;42.70;26.35;;;;;;;3.67;75.09;102454.16;1715039;82;20975;-76
2021/01/03 01:18:52;;;;;;;38.33;25.88;;;;;;;3.63;75.17;102453.72;1714687;82;20999;-76
2021/01/03 01:21:21;;;;;;;36.05;26.02;;;;;;;3.62;75.23;102458.91;1735754;82;21433;-75
2021/01/03 01:23:49;;;;;;;35.33;24.25;;;;;;;3.58;75.46;102456.77;1715066;82;20972;-76
2021/01/03 01:26:17;;;;;;;33.55;23.95;;;;;;;3.57;75.45;102457.62;1714930;82;20975;-76
2021/01/03 01:28:45;;;;;;;38.98;24.55;;;;;;;3.58;75.63;102463.66;1714809;82;20944;-77
2021/01/03 01:31:12;;;;;;;39.45;26.15;;;;;;;3.59;75.51;102465.41;1713502;82;20948;-77
2021/01/03 01:33:41;;;;;;;40.15;27.77;;;;;;;3.59;75.45;102457.19;1714781;82;21181;-76
2021/01/03 01:36:09;;;;;;;31.90;22.98;;;;;;;3.60;75.38;102468.42;1714591;82;21381;-76
2021/01/03 01:38:37;;;;;;;27.95;20.60;;;;;;;3.62;75.32;102464.09;1714831;82;20983;-77
2021/01/03 01:41:05;;;;;;;33.30;21.75;;;;;;;3.60;75.14;102464.12;1714808;82;21015;-77
2021/01/03 01:43:33;;;;;;;29.90;20.45;;;;;;;3.61;75.23;102463.23;1714859;82;20987;-77
2021/01/03 01:46:02;;;;;;;27.87;21.33;;;;;;;3.62;75.21;102459.77;1714699;82;22159;-76
2021/01/03 01:48:38;;;;;;;39.60;23.40;;;;;;;3.65;75.15;102460.22;1714798;82;21180;-76
2021/01/03 01:51:11;;;;;;;26.90;19.62;;;;;;;3.66;75.15;102456.74;1714842;82;20939;-76
2021/01/03 01:54:03;;;;;;;34.00;23.35;;;;;;;3.69;75.02;102459.32;1713231;82;20955;-76
2021/01/03 01:57:03;;;;;;;29.77;20.90;;;;;;;3.69;74.86;102459.32;1713588;82;21002;-77
2021/01/03 01:59:52;;;;;;;29.40;20.88;;;;;;;3.66;74.83;102448.95;1713523;82;21709;-78
2021/01/03 02:02:56;;;;;;;27.30;20.05;;;;;;;3.64;74.74;102458.03;1714590;82;21596;-76
2021/01/03 02:05:52;;;;;;;21.23;15.98;;;;;;;3.63;74.80;102452.87;1714698;82;21039;-77
2021/01/03 02:08:44;;;;;;;29.07;19.98;;;;;;;3.62;74.96;102449.39;1713480;82;21671;-77
2021/01/03 02:11:16;;;;;;;28.35;20.72;;;;;;;3.66;74.78;102448.95;1713662;82;21015;-76
2021/01/03 02:13:48;;;;;;;29.87;21.33;;;;;;;3.68;74.66;102449.38;1715036;82;21174;-75
2021/01/03 02:16:19;;;;;;;30.57;20.27;;;;;;;3.71;74.50;102449.80;1713544;82;21027;-77
2021/01/03 02:18:48;;;;;;;29.82;21.00;;;;;;;3.72;74.45;102442.03;1713582;82;20912;-75
2021/01/03 02:21:42;;;;;;;27.52;19.75;;;;;;;3.71;74.36;102445.50;1713533;82;20976;-74
2021/01/03 02:24:38;;;;;;;26.02;17.62;;;;;;;3.72;74.20;102453.70;1694255;82;21038;-76
2021/01/03 02:27:11;;;;;;;24.77;16.77;;;;;;;3.71;74.09;102453.70;1714882;82;21178;-77
2021/01/03 02:29:40;;;;;;;23.87;16.87;;;;;;;3.68;74.09;102452.42;1714985;82;20978;-76
2021/01/03 02:32:07;;;;;;;21.85;15.60;;;;;;;3.66;74.28;102448.95;1715071;82;20956;-77
2021/01/03 02:34:39;;;;;;;24.20;17.98;;;;;;;3.65;74.18;102449.41;1714731;82;20948;-76
2021/01/03 02:37:10;;;;;;;27.48;17.15;;;;;;;3.63;74.15;102440.75;1713442;82;20986;-77
2021/01/03 02:39:50;;;;;;;23.27;18.07;;;;;;;3.62;74.19;102450.69;1714861;82;22140;-76
2021/01/03 02:42:30;;;;;;;27.17;20.30;;;;;;;3.62;74.19;102458.91;1713438;82;20968;-76
2021/01/03 02:44:58;;;;;;;30.32;20.15;;;;;;;3.58;74.28;102455.47;1714156;82;20944;-77
2021/01/03 02:47:32;;;;;;;26.73;18.75;;;;;;;3.59;74.19;102446.81;1714699;82;20939;-77
2021/01/03 02:50:00;;;;;;;25.40;19.25;;;;;;;3.62;74.19;102449.83;1713632;82;20968;-78
2021/01/03 02:52:38;;;;;;;28.52;21.35;;;;;;;3.63;74.28;102448.98;1714781;82;21926;-78
2021/01/03 02:57:06;;;;;;;34.65;24.75;;;;;;;3.68;74.43;102442.04;1813585;78;22667;-78
2021/01/03 02:59:34;;;;;;;42.62;28.73;;;;;;;3.67;74.44;102453.30;1755628;80;21447;-76
2021/01/03 03:02:03;;;;;;;45.78;33.08;;;;;;;3.71;74.33;102452.41;1755594;80;20961;-77
2021/01/03 03:04:32;;;;;;;46.83;33.70;;;;;;;3.72;74.27;102454.15;1755569;80;21511;-77
2021/01/03 03:06:59;;;;;;;47.15;32.48;;;;;;;3.70;74.05;102458.03;1755740;80;20930;-76
2021/01/03 03:09:28;;;;;;;53.05;33.95;;;;;;;3.64;74.07;102456.73;1755559;80;20949;-77
2021/01/03 03:11:56;;;;;;;52.35;33.83;;;;;;;3.62;74.08;102451.13;1755715;80;21408;-75
2021/01/03 03:14:23;;;;;;;48.13;31.87;;;;;;;3.59;74.06;102453.73;1755590;80;21488;-75
2021/01/03 03:16:58;;;;;;;51.60;34.58;;;;;;;3.55;74.17;102461.94;1755646;80;21384;-76
2021/01/03 03:19:27;;;;;;;60.85;38.02;;;;;;;3.50;74.37;102458.50;1734178;81;21475;-75
2021/01/03 03:21:57;;;;;;;60.98;38.33;;;;;;;3.48;74.60;102454.59;1753250;80;21384;-77
2021/01/03 03:24:25;;;;;;;61.58;38.78;;;;;;;3.51;74.51;102458.50;1750735;81;21033;-77
2021/01/03 03:26:59;;;;;;;63.45;39.18;;;;;;;3.51;74.54;102457.61;1750483;81;21066;-77
2021/01/03 03:29:27;;;;;;;66.10;40.25;;;;;;;3.50;74.51;102454.17;1750580;81;20981;-78
2021/01/03 03:31:55;;;;;;;65.12;37.78;;;;;;;3.50;74.48;102451.57;1750547;80;21339;-76
2021/01/03 03:34:24;;;;;;;64.20;38.50;;;;;;;3.46;74.60;102450.28;1750520;80;21021;-76
2021/01/03 03:36:56;;;;;;;52.00;29.55;;;;;;;3.45;74.61;102458.50;1750436;81;20997;-76
2021/01/03 03:39:25;;;;;;;46.90;28.35;;;;;;;3.44;74.55;102456.75;1750590;80;20990;-75
2021/01/03 03:41:56;;;;;;;47.45;31.60;;;;;;;3.38;74.61;102458.08;1753135;81;20966;-76
2021/01/03 03:44:24;;;;;;;49.00;30.23;;;;;;;3.32;74.92;102462.83;1720411;81;21030;-76
2021/01/03 03:46:55;;;;;;;50.45;30.65;;;;;;;3.30;75.22;102471.03;1750359;81;21139;-76
2021/01/03 03:49:23;;;;;;;43.30;29.80;;;;;;;3.28;75.27;102468.87;1750541;80;21479;-76
2021/01/03 03:51:56;;;;;;;36.40;26.12;;;;;;;3.29;75.35;102477.50;1725608;81;22456;-76
2021/01/03 03:54:24;;;;;;;36.88;24.98;;;;;;;3.30;75.37;102479.25;1750379;80;21001;-76
2021/01/03 03:56:57;;;;;;;31.80;20.92;;;;;;;3.29;75.29;102477.50;1748180;81;21069;-75
2021/01/03 03:59:25;;;;;;;29.42;20.23;;;;;;;3.25;75.35;102474.06;1747771;82;21636;-75
2021/01/03 04:01:54;;;;;;;28.73;20.27;;;;;;;3.21;75.56;102480.11;1747759;81;21037;-76
2021/01/03 04:04:23;;;;;;;27.85;19.67;;;;;;;3.18;75.86;102472.34;1747703;80;21236;-76
2021/01/03 04:06:51;;;;;;;26.82;20.20;;;;;;;3.22;76.20;102465.41;1747517;80;20999;-76
2021/01/03 04:09:19;;;;;;;25.15;18.87;;;;;;;3.24;76.28;102461.95;1747336;81;21372;-77
2021/01/03 04:11:49;;;;;;;29.87;21.90;;;;;;;3.27;76.36;102461.97;1747106;80;20954;-76
2021/01/03 04:14:20;;;;;;;28.38;20.17;;;;;;;3.29;76.34;102472.31;1747334;81;20970;-76
2021/01/03 04:16:58;;;;;;;27.05;20.60;;;;;;;3.25;76.38;102468.88;1747257;81;23008;-76
2021/01/03 04:19:26;;;;;;;30.68;20.88;;;;;;;3.22;76.56;102468.86;1747185;80;21006;-77
2021/01/03 04:21:58;;;;;;;20.43;15.03;;;;;;;3.22;76.75;102466.70;1747282;80;21002;-77
2021/01/03 04:24:28;;;;;;;23.77;17.37;;;;;;;3.20;77.00;102479.69;1747404;81;21381;-77
2021/01/03 04:27:02;;;;;;;26.70;18.00;;;;;;;3.17;77.11;102477.08;1747176;80;21001;-76
2021/01/03 04:29:30;;;;;;;23.00;18.60;;;;;;;3.14;77.32;102482.27;1749856;82;21371;-77
2021/01/03 04:32:06;;;;;;;26.40;19.77;;;;;;;3.12;77.46;102483.99;1747347;81;21337;-76
2021/01/03 04:34:34;;;;;;;27.62;20.57;;;;;;;3.08;77.66;102490.03;1747560;81;21018;-75
2021/01/03 04:37:03;;;;;;;29.30;19.23;;;;;;;3.07;77.83;102489.17;1749863;81;21057;-74
2021/01/03 04:39:31;;;;;;;24.30;17.82;;;;;;;3.05;77.78;102493.48;1750832;79;20907;-73
2021/01/03 04:42:05;;;;;;;24.52;17.98;;;;;;;3.07;77.79;102487.87;1747741;81;21142;-77
2021/01/03 04:44:55;;;;;;;25.10;18.52;;;;;;;3.10;77.90;102489.61;1750011;81;21511;-77
2021/01/03 04:47:33;;;;;;;23.67;17.55;;;;;;;3.15;77.90;102494.35;1747261;81;21002;-76
2021/01/03 04:50:15;;;;;;;24.92;17.05;;;;;;;3.19;78.01;102493.94;1747188;81;20978;-77
2021/01/03 04:53:19;;;;;;;29.37;20.05;;;;;;;3.21;77.82;102502.14;1745797;80;21061;-76
2021/01/03 04:55:52;;;;;;;26.68;17.95;;;;;;;3.17;77.87;102505.59;1708679;83;21189;-77
2021/01/03 04:58:32;;;;;;;27.15;19.15;;;;;;;3.11;78.10;102496.50;1685113;83;21003;-74
2021/01/03 05:01:31;;;;;;;26.48;18.02;;;;;;;3.12;78.10;102493.06;1684894;83;20951;-74
2021/01/03 05:04:28;;;;;;;28.30;19.50;;;;;;;3.17;78.13;102491.77;1684804;83;20968;-76
2021/01/03 05:06:56;;;;;;;27.90;19.37;;;;;;;3.20;78.21;102506.91;1685225;83;21024;-75
2021/01/03 05:09:25;;;;;;;30.77;19.52;;;;;;;3.25;78.41;102499.99;1677626;83;21412;-77
2021/01/03 05:12:13;;;;;;;31.65;20.48;;;;;;;3.33;78.32;102498.69;1678358;82;21073;-77
2021/01/03 05:14:55;;;;;;;31.33;21.70;;;;;;;3.41;78.11;102496.97;1700774;83;20923;-77
2021/01/03 05:17:23;;;;;;;29.25;20.05;;;;;;;3.47;77.93;102500.01;1684845;83;21054;-77
2021/01/03 05:19:52;;;;;;;32.25;21.62;;;;;;;3.48;77.76;102492.64;1685266;83;20967;-77
2021/01/03 05:22:30;;;;;;;27.00;19.35;;;;;;;3.50;77.62;102491.77;1685197;83;21067;-77
2021/01/03 05:25:00;;;;;;;26.05;16.70;;;;;;;3.51;77.51;102489.63;1685168;83;20990;-75
2021/01/03 05:27:29;;;;;;;22.75;16.07;;;;;;;3.52;77.50;102487.89;1684955;83;20963;-76
2021/01/03 05:30:25;;;;;;;23.87;16.77;;;;;;;3.49;77.32;102490.47;1684931;83;20967;-76
2021/01/03 05:32:53;;;;;;;25.57;16.80;;;;;;;3.47;77.29;102498.27;1685557;83;20920;-76
2021/01/03 05:35:26;;;;;;;23.92;16.90;;;;;;;3.45;76.92;102497.84;1646872;83;21935;-76
2021/01/03 05:37:56;;;;;;;19.42;15.98;;;;;;;3.39;77.06;102501.28;1685123;83;21043;-77
2021/01/03 05:40:33;;;;;;;22.45;14.65;;;;;;;3.38;77.10;102496.98;1684934;83;21010;-76
2021/01/03 05:43:20;;;;;;;22.15;15.83;;;;;;;3.39;77.07;102498.70;1685445;82;20920;-76
2021/01/03 05:46:10;;;;;;;20.25;14.70;;;;;;;3.41;77.17;102509.08;1712945;82;20947;-76
2021/01/03 05:49:03;;;;;;;22.45;17.12;;;;;;;3.42;77.12;102501.72;1685800;83;21182;-76
2021/01/03 05:51:46;;;;;;;26.20;16.97;;;;;;;3.44;77.03;102501.28;1685026;83;20975;-75
2021/01/03 05:54:17;;;;;;;23.95;16.67;;;;;;;3.45;76.89;102504.33;1684898;83;21002;-76
2021/01/03 05:56:45;;;;;;;24.20;16.97;;;;;;;3.46;76.89;102509.94;1713406;82;21432;-76
2021/01/03 05:59:28;;;;;;;23.60;16.17;;;;;;;3.49;76.79;102513.81;1747249;80;20993;-76
2021/01/03 06:02:07;;;;;;;21.62;16.67;;;;;;;3.52;76.70;102516.42;1746983;82;21477;-75
2021/01/03 06:04:36;;;;;;;24.40;17.23;;;;;;;3.53;76.67;102520.73;1746803;80;21034;-76
2021/01/03 06:07:24;;;;;;;21.30;15.70;;;;;;;3.52;76.82;102507.34;1747214;82;21037;-75
2021/01/03 06:09:53;;;;;;;25.88;17.98;;;;;;;3.53;76.74;102515.55;1747264;81;21057;-75
2021/01/03 06:12:30;;;;;;;27.62;17.77;;;;;;;3.55;76.83;102512.52;1747132;80;20950;-76
2021/01/03 06:15:00;;;;;;;27.60;17.52;;;;;;;3.58;76.78;102512.95;1715169;82;21130;-75
2021/01/03 06:17:35;;;;;;;21.12;16.52;;;;;;;3.61;76.84;102516.42;1747163;82;21002;-77
2021/01/03 06:20:07;;;;;;;;;;;;;;;3.63;76.60;102522.91;1749940;81;21049;-77
2021/01/03 06:22:59;;;;;;;23.27;14.90;;;;;;;3.63;76.58;102525.51;1717226;82;20532;-74
2021/01/03 06:26:07;;;;;;;20.48;13.95;;;;;;;3.59;76.63;102529.81;1747104;82;20955;-75
2021/01/03 06:28:51;;;;;;;18.57;12.70;;;;;;;3.55;76.48;102529.38;1747346;81;21045;-76
2021/01/03 06:31:44;;;;;;;17.90;11.90;;;;;;;3.47;76.25;102529.83;1715038;82;20978;-75
2021/01/03 06:34:51;;;;;;;20.82;13.65;;;;;;;3.40;76.33;102530.27;1747120;80;20970;-75
2021/01/03 06:37:46;;;;;;;19.15;11.78;;;;;;;3.38;76.43;102534.98;1747179;80;21496;-78
2021/01/03 06:40:34;;;;;;;17.73;12.18;;;;;;;3.37;76.52;102533.27;1688645;82;20954;-76
2021/01/03 06:43:59;;;;;;;17.07;12.03;;;;;;;3.37;76.35;102529.38;1747312;81;22129;-76
2021/01/03 06:47:05;;;;;;;14.00;10.82;;;;;;;3.37;76.51;102535.42;1715128;82;21580;-76
2021/01/03 06:49:46;;;;;;;14.58;10.58;;;;;;;3.39;76.39;102536.30;1715118;82;21179;-76
2021/01/03 06:52:56;;;;;;;15.58;12.20;;;;;;;3.39;76.38;102538.89;1712856;82;21615;-76
2021/01/03 06:55:59;;;;;;;16.60;12.25;;;;;;;3.36;76.46;102538.91;1746961;82;21033;-76
2021/01/03 06:59:06;;;;;;;20.77;12.37;;;;;;;3.34;76.50;102541.92;1722445;82;21178;-76
2021/01/03 07:01:37;;;;;;;17.02;12.07;;;;;;;3.34;76.59;102549.70;1747140;82;20962;-76
2021/01/03 07:04:25;;;;;;;15.83;11.97;;;;;;;3.36;76.50;102551.87;1747098;81;21037;-78
2021/01/03 07:06:53;;;;;;;16.00;12.03;;;;;;;3.37;76.40;102550.12;1745883;82;21622;-75
2021/01/03 07:09:21;;;;;;;19.95;13.55;;;;;;;3.38;76.57;102551.44;1691894;80;20963;-75
2021/01/03 07:11:59;;;;;;;16.02;12.55;;;;;;;3.43;76.55;102556.63;1747668;82;21376;-77
2021/01/03 07:14:39;;;;;;;17.45;12.60;;;;;;;3.47;76.41;102554.03;1747125;82;20978;-75
2021/01/03 07:17:13;;;;;;;19.52;13.70;;;;;;;3.51;76.31;102556.18;1747050;80;20938;-77
2021/01/03 07:19:55;;;;;;;17.92;14.20;;;;;;;3.52;76.17;102559.22;1698492;80;20935;-77
2021/01/03 07:22:30;;;;;;;21.15;14.28;;;;;;;3.50;76.24;102562.25;1747216;81;21006;-78
2021/01/03 07:25:05;;;;;;;18.40;13.48;;;;;;;3.54;76.32;102565.28;1721099;82;20946;-78
2021/01/03 07:27:42;;;;;;;16.55;12.05;;;;;;;3.62;76.21;102568.72;1747157;80;21009;-78
2021/01/03 07:30:15;;;;;;;20.05;14.33;;;;;;;3.67;76.02;102565.72;1747164;80;20946;-79
2021/01/03 07:33:01;;;;;;;17.35;12.88;;;;;;;3.71;76.00;102574.34;1747087;82;20974;-78
2021/01/03 07:35:37;;;;;;;17.25;12.68;;;;;;;3.77;75.70;102566.57;1747142;80;21519;-77
2021/01/03 07:38:21;;;;;;;19.17;13.48;;;;;;;3.83;75.53;102567.02;1747290;80;21014;-79
2021/01/03 07:40:54;;;;;;;16.93;12.63;;;;;;;3.87;75.34;102568.30;1722361;82;20950;-79
2021/01/03 07:43:23;;;;;;;19.40;12.28;;;;;;;3.88;75.14;102574.35;1715480;82;20955;-78
2021/01/03 07:45:54;;;;;;;19.60;13.60;;;;;;;3.84;74.90;102572.18;1747550;81;21451;-79
2021/01/03 07:48:38;;;;;;;24.50;13.03;;;;;;;3.82;74.93;102568.72;1747451;80;21191;-78
2021/01/03 07:51:11;;;;;;;15.58;11.25;;;;;;;3.80;75.14;102567.00;1747189;80;22111;-77
2021/01/03 07:53:40;;;;;;;18.35;13.32;;;;;;;3.78;74.88;102566.13;1747172;80;20998;-75
2021/01/03 07:56:22;;;;;;;15.45;12.47;;;;;;;3.69;74.83;102569.18;1747067;80;20970;-75
2021/01/03 07:58:55;;;;;;;18.27;12.70;;;;;;;3.64;74.89;102569.59;1745086;82;20959;-77
2021/01/03 08:01:30;;;;;;;19.20;14.20;;;;;;;3.61;74.87;102577.38;1745611;82;21634;-77
2021/01/03 08:04:10;;;;;;;17.27;13.22;;;;;;;3.54;74.97;102575.66;1745566;82;22139;-77
2021/01/03 08:06:39;;;;;;;14.18;10.95;;;;;;;3.56;75.17;102573.04;1743997;82;21544;-77
2021/01/03 08:09:07;;;;;;;14.90;11.48;;;;;;;3.60;74.68;102579.56;1745548;80;20946;-76
2021/01/03 08:11:40;;;;;;;16.37;11.70;;;;;;;3.58;74.55;102577.39;1745385;82;20994;-77
2021/01/03 08:14:17;;;;;;;15.40;11.43;;;;;;;3.51;74.81;102573.04;1745923;82;21041;-78
2021/01/03 08:16:45;;;;;;;21.60;13.68;;;;;;;3.50;74.89;102581.26;1720391;81;21034;-77
2021/01/03 08:19:13;;;;;;;17.92;12.85;;;;;;;3.51;74.87;102580.41;1748011;82;21085;-75
2021/01/03 08:21:41;;;;;;;19.87;12.98;;;;;;;3.51;75.02;102579.11;1720874;82;21002;-79
2021/01/03 08:24:15;;;;;;;18.92;13.75;;;;;;;3.51;75.16;102579.11;1745141;82;21405;-77
2021/01/03 08:26:47;;;;;;;21.70;14.58;;;;;;;3.54;75.07;102576.95;1745435;82;21065;-78
2021/01/03 08:29:42;;;;;;;21.82;15.10;;;;;;;3.60;74.97;102572.19;1720757;82;21177;-76
2021/01/03 08:32:17;;;;;;;15.75;12.23;;;;;;;3.66;74.80;102574.34;1719828;82;20970;-79
2021/01/03 08:34:46;;;;;;;23.57;14.75;;;;;;;3.71;74.69;102574.34;1720599;82;20962;-81
2021/01/03 08:37:22;;;;;;;17.12;12.10;;;;;;;3.71;74.40;102578.23;1745210;80;20974;-80
2021/01/03 08:39:51;;;;;;;18.60;13.22;;;;;;;3.70;74.32;102583.01;1720592;82;20970;-80
2021/01/03 08:42:36;;;;;;;17.67;12.23;;;;;;;3.67;74.25;102579.13;1713431;82;21371;-80
2021/01/03 08:45:06;;;;;;;18.90;13.05;;;;;;;3.63;74.24;102576.09;1720316;81;21209;-79
2021/01/03 08:47:37;;;;;;;17.85;12.75;;;;;;;3.59;74.40;102577.81;1720549;82;21563;-80
2021/01/03 08:50:21;;;;;;;17.32;13.03;;;;;;;3.57;74.26;102576.94;1745312;81;21029;-80
2021/01/03 08:53:05;;;;;;;15.32;12.28;;;;;;;3.59;74.10;102578.25;1745374;80;20966;-77
2021/01/03 08:55:36;;;;;;;19.40;12.37;;;;;;;3.57;73.98;102573.05;1745190;82;21163;-78
2021/01/03 08:58:15;;;;;;;17.20;12.75;;;;;;;3.53;74.24;102565.72;1745265;80;20998;-77
2021/01/03 09:00:44;;;;;;;22.27;14.80;;;;;;;3.55;74.38;102572.63;1745345;80;21666;-78
2021/01/03 09:03:18;;;;;;;22.75;14.95;;;;;;;3.59;74.62;102570.47;1745261;82;20963;-80
2021/01/03 09:05:48;;;;;;;18.25;14.28;;;;;;;3.61;74.55;102578.68;1745721;82;21022;-82
2021/01/03 09:08:30;;;;;;;19.77;13.25;;;;;;;3.60;74.47;102578.27;1745144;82;22107;-84
2021/01/03 09:11:07;;;;;;;16.10;12.28;;;;;;;3.61;74.28;102573.93;1746327;82;21002;-82
2021/01/03 09:13:39;;;;;;;16.73;12.05;;;;;;;3.63;74.26;102572.20;1712671;82;21031;-84
2021/01/03 09:16:45;;;;;;;15.23;11.70;;;;;;;3.65;74.32;102579.12;1697733;82;21565;-84
2021/01/03 09:19:19;;;;;;;19.20;12.85;;;;;;;3.66;74.27;102574.34;1713310;82;21077;-83
2021/01/03 09:21:57;;;;;;;19.95;14.60;;;;;;;3.68;74.28;102570.47;1713397;82;21990;-82
2021/01/03 09:24:29;;;;;;;19.25;15.28;;;;;;;3.68;74.37;102562.24;1746020;80;21034;-84
2021/01/03 09:26:59;;;;;;;22.32;16.17;;;;;;;3.74;74.47;102563.55;1713901;82;21464;-85
2021/01/03 09:29:36;;;;;;;25.92;18.23;;;;;;;3.83;74.45;102561.38;1745569;82;20974;-83
2021/01/03 09:32:27;;;;;;;23.85;17.37;;;;;;;3.89;74.29;102553.59;1745659;82;21022;-81
2021/01/03 09:35:25;;;;;;;22.50;16.62;;;;;;;3.96;73.93;102551.86;1745866;82;21171;-82
2021/01/03 09:38:28;;;;;;;23.20;16.40;;;;;;;4.03;73.73;102556.61;1678343;85;21664;-83
2021/01/03 09:41:30;;;;;;;26.27;19.30;;;;;;;4.08;73.52;102555.72;1654046;85;21077;-83
2021/01/03 09:44:31;;;;;;;24.07;19.67;;;;;;;4.12;73.61;102547.50;1669368;85;21086;-82
2021/01/03 09:47:14;;;;;;;31.30;20.43;;;;;;;4.22;73.47;102535.35;1846696;75;22717;-79
2021/01/03 09:49:52;;;;;;;30.55;21.07;;;;;;;4.20;73.28;102545.73;1786542;79;20966;-82
2021/01/03 09:52:36;;;;;;;25.82;18.32;;;;;;;4.25;73.26;102539.26;1786693;79;22157;-83
2021/01/03 09:55:18;;;;;;;29.40;23.05;;;;;;;4.29;72.91;102539.66;1785487;79;20936;-80
2021/01/03 09:57:59;;;;;;;30.27;21.42;;;;;;;4.30;72.90;102545.30;1775366;79;20979;-81
2021/01/03 10:00:48;;;;;;;29.07;20.60;;;;;;;4.32;72.83;102543.12;1785788;79;20951;-84
2021/01/03 10:03:41;;;;;;;27.37;19.55;;;;;;;4.35;72.74;102537.05;1787860;79;20950;-85
2021/01/03 10:06:23;;;;;;;28.30;20.15;;;;;;;4.39;73.01;102536.17;1788422;79;21049;-78
2021/01/03 10:09:12;;;;;;;27.87;21.93;;;;;;;4.43;72.85;102523.61;1781544;79;20994;-82
2021/01/03 10:11:41;;;;;;;32.23;23.42;;;;;;;4.48;72.84;102522.29;1787173;79;21041;-82
2021/01/03 10:14:14;;;;;;;35.58;24.87;;;;;;;4.56;72.69;102518.80;1787368;79;21050;-80
2021/01/03 10:16:42;;;;;;;36.25;24.87;;;;;;;4.63;72.63;102516.17;1781323;79;20958;-80
2021/01/03 10:19:19;;;;;;;33.35;23.73;;;;;;;4.70;72.32;102516.56;1789358;79;21367;-80
2021/01/03 10:21:47;;;;;;;33.92;23.22;;;;;;;4.70;72.02;102510.92;1786776;79;20915;-80
2021/01/03 10:24:23;;;;;;;34.13;22.95;;;;;;;4.69;72.04;102509.62;1786623;79;20946;-76
2021/01/03 10:27:13;;;;;;;35.75;22.98;;;;;;;4.69;72.00;102500.12;1784952;79;21010;-81
2021/01/03 10:29:41;;;;;;;32.33;19.82;;;;;;;4.73;72.06;102502.24;1784980;79;20994;-80
2021/01/03 10:32:09;;;;;;;34.67;23.38;;;;;;;4.76;72.02;102494.45;1786266;79;21723;-79
2021/01/03 10:34:37;;;;;;;33.25;22.80;;;;;;;4.77;72.02;102491.82;1786826;79;21436;-78
2021/01/03 10:37:05;;;;;;;40.92;25.23;;;;;;;4.81;71.84;102489.23;1786349;79;21065;-78
2021/01/03 10:39:34;;;;;;;55.23;37.60;;;;;;;4.83;71.78;102486.18;1786280;79;20939;-83
2021/01/03 10:42:05;;;;;;;40.17;26.27;;;;;;;4.88;71.86;102489.16;1786627;79;20938;-79
2021/01/03 10:44:32;;;;;;;42.70;27.80;;;;;;;4.93;71.93;102482.63;1787165;79;21121;-80
2021/01/03 10:47:01;;;;;;;41.35;28.85;;;;;;;4.96;71.96;102476.13;1786086;79;21010;-80
2021/01/03 10:49:29;;;;;;;37.73;26.20;;;;;;;4.97;71.92;102468.30;1787378;79;21018;-81
2021/01/03 10:51:57;;;;;;;35.95;22.82;;;;;;;5.02;71.74;102474.77;1786458;79;20935;-80
2021/01/03 10:54:27;;;;;;;33.58;23.73;;;;;;;5.06;71.36;102472.58;1786124;79;20899;-81
2021/01/03 10:56:57;;;;;;;34.50;22.82;;;;;;;5.08;71.50;102468.67;1782775;79;21141;-80
2021/01/03 10:59:26;;;;;;;34.73;23.85;;;;;;;5.11;71.28;102469.94;1785639;79;20978;-73
2021/01/03 11:01:54;;;;;;;30.48;21.07;;;;;;;5.12;71.21;102459.53;1784110;79;21046;-77
2021/01/03 11:04:23;;;;;;;33.92;23.40;;;;;;;5.13;70.66;102465.59;1785592;79;21444;-77
2021/01/03 11:06:55;;;;;;;35.68;23.22;;;;;;;5.12;70.74;102456.08;1785502;79;21001;-74
2021/01/03 11:09:30;;;;;;;32.33;22.00;;;;;;;5.13;70.78;102456.05;1784382;79;21374;-71
2021/01/03 11:12:08;;;;;;;33.08;21.37;;;;;;;5.13;70.04;102449.55;1785747;79;20947;-72
2021/01/03 11:14:38;;;;;;;27.62;18.87;;;;;;;5.13;70.04;102449.55;1817327;78;21089;-72
2021/01/03 11:17:11;;;;;;;30.80;21.12;;;;;;;5.14;70.29;102453.89;1784268;79;20899;-78
2021/01/03 11:19:39;;;;;;;30.25;20.57;;;;;;;5.16;70.39;102449.98;1784254;77;21656;-77
2021/01/03 11:22:11;;;;;;;33.83;23.00;;;;;;;5.19;70.61;102450.80;1784319;79;22124;-74
2021/01/03 11:24:40;;;;;;;30.52;20.10;;;;;;;5.24;70.53;102453.81;1784358;77;21029;-73
2021/01/03 11:27:15;;;;;;;32.13;23.15;;;;;;;5.26;70.31;102452.06;1785486;79;20999;-75
2021/01/03 11:29:45;;;;;;;36.53;23.40;;;;;;;5.28;70.34;102449.88;1784288;79;20903;-75
2021/01/03 11:32:17;;;;;;;31.02;20.25;;;;;;;5.34;70.41;102443.77;1784338;77;21563;-77
2021/01/03 11:34:45;;;;;;;31.35;19.95;;;;;;;5.39;70.35;102441.98;1785582;79;22852;-75
2021/01/03 11:37:17;;;;;;;29.37;20.60;;;;;;;5.45;70.06;102447.13;1785406;79;21022;-75
2021/01/03 11:39:45;;;;;;;25.30;16.75;;;;;;;5.49;69.76;102440.14;1784761;79;21006;-75
2021/01/03 11:42:16;;;;;;;22.85;14.80;;;;;;;5.50;69.00;102441.88;1785496;79;21002;-74
2021/01/03 11:44:44;;;;;;;25.72;16.30;;;;;;;5.40;68.64;102434.17;1785713;79;21077;-73
2021/01/03 11:47:14;;;;;;;25.43;17.37;;;;;;;5.29;69.01;102432.10;1785459;79;21146;-75
2021/01/03 11:49:42;;;;;;;31.20;20.00;;;;;;;5.22;69.10;102417.84;1784243;79;21010;-75
2021/01/03 11:52:12;;;;;;;21.45;16.05;;;;;;;5.17;69.31;102424.39;1782755;79;21431;-74
2021/01/03 11:54:40;;;;;;;25.68;16.82;;;;;;;5.15;69.04;102427.44;1785808;79;21503;-77
2021/01/03 11:57:09;;;;;;;23.67;15.95;;;;;;;5.07;69.23;102424.91;1784714;79;21062;-76